6798500 - Elkhorn River at Neligh

Latitude:
42.12296º N
Longitude:
98.04387º W
Type:
Stream
River Basin:
Elkhorn
Source:
NeDNR

Info! The graphs are now plotted with new date ranges.
Warning! If you see this please check date range (or) the data is not available.

 to 


—— Provisional Data Subject to Revision ——

Instantaneous Discharge

6798500 - Elkhorn River at Neligh
- Ice Possible      - Equipment Malfunction
- Seasonal      -Rating in Development
- Measured



Instantaneous Stage

6798500 - Elkhorn River at Neligh
- Ice Possible      - Equipment Malfunction
- Seasonal      -Rating in Development
- Measured



 to 


—— Provisional Data Subject to Revision ——

Daily Discharge

6798500 - Elkhorn River at Neligh
- Approved      - Provisional


Export
Date Time Discharge (cfs) Stage (feet) Shift (feet)
09/10/2019 13:45 1,110 2.66 -0.07
08/05/2019 13:50 433 1.82 -0.12
07/22/2019 13:20 780 2.09 0.11
07/16/2019 11:45 710 2.28 -0.17
05/28/2019 15:11 6,130 6.27 -0.15
04/19/2019 16:00 2,160 3.08 0.50
03/19/2019 15:46 9,180 7.60 -0.02
02/11/2019 14:08 334 2.37 -0.84
01/04/2019 14:30 514 2.55 -0.72
12/21/2018 12:35 1,290 2.77 0.02
11/08/2018 11:00 631 2.13 -0.13
10/10/2018 13:00 972 2.58 -0.14
09/10/2018 15:10 368 1.67 -0.08
08/30/2018 16:30 374 1.80 -0.20
07/11/2018 11:30 1,570 3.04 0.02
06/20/2018 15:32 882 2.53 -0.20
05/04/2018 13:10 1,420 2.52 0.39
03/20/2018 13:03 2,110 3.19 0.05
02/14/2018 10:15 208 2.00 -0.71
01/04/2018 13:45 220 1.50 -0.17
12/20/2017 13:46 305 1.44 0.09
11/29/2017 14:04 318 1.44 0.11
10/10/2017 12:50 5,690 5.95 -0.71
09/26/2017 13:53 341 1.60 -0.01
08/21/2017 15:14 1,630 3.07 -0.17
07/18/2017 14:04 126 0.96 0.06
06/29/2017 11:40 178 1.14 0.06
05/22/2017 12:19 4,530 5.50 -0.85
05/02/2017 14:52 2,310 3.44 -0.07
04/10/2017 14:30 518 1.90 -0.03
03/09/2017 13:35 467 2.00 -0.19
02/21/2017 12:45 728 2.21 -0.08
02/03/2017 14:30 282 1.60 -0.12
12/22/2016 10:10 161 1.75 -0.60
11/21/2016 11:02 281 1.26 0.22
10/31/2016 14:10 180 1.19 0.02
09/06/2016 15:30 170 0.99 0.19
08/25/2016 14:00 126 0.88 0.14
07/06/2016 14:30 278 1.39 0.08
06/14/2016 14:00 308 1.53 0.00
05/03/2016 14:45 7,710 6.75 -0.59
04/14/2016 13:30 308 1.80 -0.27
03/21/2016 15:00 295 1.63 -0.12
02/26/2016 13:42 652 1.94 0.11
01/21/2016 14:30 229 1.92 -0.57
12/11/2015 13:30 390 1.83 -0.15
11/25/2015 16:00 404 1.82 -0.12
10/29/2015 17:10 191 1.40 -0.16
09/17/2015 1:00 113 1.19 -0.22
08/18/2015 12:30 191 1.38 -0.14
07/29/2015 14:30 147 1.24 -0.14
06/24/2015 14:41 347 1.81 -0.20
05/27/2015 17:00 287 1.61 -0.12
04/22/2015 14:15 440 1.87 -0.11
03/24/2015 14:15 259 1.47 -0.05
01/23/2015 10:15 254 1.94 -0.53
12/09/2014 14:15 249 1.55 -0.15
10/24/2014 12:00 160 1.21 -0.07
09/29/2014 12:45 164 1.22 -0.06
09/11/2014 15:30 178 1.21 -0.01
08/13/2014 14:15 210 1.32 -0.02
06/12/2014 15:15 771 2.24 -0.06
05/23/2014 20:30 165 1.16 0.00
05/06/2014 17:00 208 1.35 -0.06
03/18/2014 17:15 282 1.44 0.04
02/26/2014 15:00 143 1.22 -0.13
01/24/2014 17:00 157 1.45 -0.32
11/07/2013 16:45 206 1.27 0.02
10/03/2013 14:30 586 2.05 -0.08
09/18/2013 16:15 74.6 0.80 -0.48
08/22/2013 13:50 162 1.15 -0.64
07/16/2013 10:30 91.2 0.85 -0.49
06/10/2013 15:00 310 1.57 -0.81
05/17/2013 13:15 470 1.66 -0.66
04/08/2013 15:30 200 1.26 -0.68
03/14/2013 12:55 242 1.40 -0.75
01/17/2013 14:00 120 1.33 -0.90
12/06/2012 13:50 127 1.06 -0.62
11/15/2012 12:15 114 1.02 -0.61
10/30/2012 12:15 97.0 0.90 -0.52
09/27/2012 12:45 50.1 0.69 -0.44
08/27/2012 15:45 40.7 0.62 -0.40
07/24/2012 11:10 39.3 0.64 -0.42
07/17/2012 14:00 61.3 0.67 -0.39
06/28/2012 12:40 120 0.83 -0.40
06/07/2012 21:00 204 1.15 -0.57
04/30/2012 15:30 1,830 3.26 -0.82
03/20/2012 16:00 390 1.59 -0.70
02/24/2012 16:10 381 1.51 -0.64
01/09/2012 14:45 311 1.35 -0.59
12/23/2011 15:40 252 1.32 -0.65
12/01/2011 15:15 262 1.24 -0.56
11/03/2011 16:00 255 1.13 -0.46
09/29/2011 19:45 180 0.92 -0.38
08/10/2011 15:45 267 1.10 -0.41
07/13/2011 16:30 2,270 2.98 -0.17
06/27/2011 15:15 5,780 5.06 0.09
05/26/2011 16:00 2,030 3.32 -0.70
04/25/2011 13:20 2,380 2.87 0.04
04/08/2011 16:30 596 1.69 -0.52
03/16/2011 16:40 1,380 2.02 0.01
01/14/2011 14:45 201 1.35 -0.77
12/10/2010 16:00 292 0.89 -0.16
12/01/2010 15:15 155 0.55 -0.06
10/20/2010 14:00 180 0.54 0.00
09/09/2010 15:00 219 0.60 0.01
08/18/2010 15:30 278 0.71 0.00
07/01/2010 14:30 1,270 1.99 -0.06
06/17/2010 14:40 18,200 10.28 0.01
06/14/2010 14:45 35,200 14.65 0.00
05/27/2010 14:30 301 2.54 0.65
05/03/2010 15:30 635 3.22 0.75
03/16/2010 11:45 3,980 6.46 1.32
01/26/2010 13:00 304 3.05 0.15
12/29/2009 12:45 188 3.11 -0.28
11/24/2009 13:00 400 2.80 0.65
10/26/2009 16:00 541 3.17 0.61
09/01/2009 14:30 190 2.47 0.37
08/04/2009 16:45 145 2.28 0.39
07/14/2009 16:45 198 2.50 0.37
06/03/2009 14:30 210 2.56 0.35
05/13/2009 16:15 296 2.82 0.36
04/22/2009 14:15 624 3.32 0.63
03/19/2009 16:00 758 3.37 0.83
02/04/2009 13:45 284 2.97 0.17
12/29/2008 13:30 242 3.20 -0.19
11/25/2008 14:15 382 2.93 0.48
10/15/2008 19:00 299 2.91 0.28
09/04/2008 16:30 111 2.49 0.03
08/14/2008 19:20 181 2.70 0.11
07/15/2008 12:15 214 2.73 0.19
06/27/2008 15:00 360 3.16 0.19
05/29/2008 14:15 4,160 6.57 1.35
05/20/2008 11:45 352 3.15 0.18
04/23/2008 20:30 382 3.14 0.27
04/08/2008 20:30 408 2.97 0.50
02/22/2008 15:00 294 2.80 0.37
01/30/2008 15:15 204 2.79 0.10
12/29/2007 14:00 270 2.80 0.30
11/27/2007 13:00 234 2.61 0.38
10/29/2007 16:15 393 2.96 0.48
09/25/2007 14:15 141 2.39 0.26
08/30/2007 17:45 237 2.68 0.32
07/02/2007 17:15 270 2.78 0.32
06/20/2007 12:15 1,120 4.06 0.74
05/17/2007 15:36 474 3.23 0.40
04/26/2007 13:15 7,710 9.76 0.52
04/18/2007 17:00 429 3.43 0.09
03/30/2007 15:30 1,590 4.81 0.63
02/19/2007 16:00 164 3.05 -0.31
01/26/2007 16:45 167 2.95 -0.20
12/19/2006 17:05 159 2.57 0.15
11/17/2006 11:20 151 2.45 0.24
11/13/2006 14:28 145 2.38 0.28
10/05/2006 13:50 101 2.28 0.19
09/13/2006 15:32 104 2.33 0.16
08/23/2006 12:45 69.7 2.15 0.15
07/11/2006 13:35 106 2.25 0.24
06/16/2006 16:24 123 2.37 0.20
05/24/2006 16:08 192 2.64 0.21
04/12/2006 13:00 1,840 5.04 0.70
04/10/2006 12:58 3,140 6.04 1.02
03/28/2006 13:05 405 3.06 0.41
03/03/2006 17:25 231 2.65 0.33
01/23/2006 12:52 248 2.71 0.32
12/21/2005 13:50 150 2.88 -0.19
11/23/2005 13:05 173 2.47 0.31
10/20/2005 14:55 133 2.34 0.28
09/28/2005 17:40 160 2.43 0.30
08/26/2005 16:10 178 2.57 0.23
07/14/2005 15:40 214 2.62 0.30
06/06/2005 11:50 3,150 6.32 0.75
05/23/2005 17:00 502 3.52 0.17
05/10/2005 12:00 364 3.21 0.15
04/25/2005 12:20 2,060 5.04 0.95
03/31/2005 15:19 411 3.31 0.18
02/09/2005 11:40 103 2.44 0.04
01/25/2005 10:35 166 3.12 -0.37
12/06/2004 12:55 219 2.76 0.18
11/23/2004 0:00 190 2.75 0.09
10/07/2004 1:00 140 2.61 0.04
09/10/2004 1:00 39.6 2.17 -0.07
08/23/2004 1:00 66.4 2.25 0.03
07/15/2004 1:00 198 2.76 0.11
06/15/2004 1:00 0.000 2.61 -1.11
06/14/2004 1:00 180 2.64 0.16
05/07/2004 1:00 152 2.60 0.10
04/26/2004 1:00 266 2.84 0.25
03/30/2004 0:00 237 2.85 0.15
02/19/2004 0:00 120 3.07 -0.51
12/18/2003 0:00 133 2.76 -0.14
11/10/2003 0:00 118 2.58 -0.03
10/06/2003 1:00 73.0 2.35 -0.03
08/28/2003 1:00 45.6 2.19 -0.04
Export



Download Rating Curve
  
0.05     0.01
0.06     0.01
0.07     0.02
0.08     0.03
0.09     0.05
0.10     0.07
0.11     0.09
0.12     0.12
0.13     0.16
0.14     0.20
0.15     0.25
0.16     0.31
0.17     0.38
0.18     0.45
0.19     0.53
0.20     0.63
0.21     0.73
0.22     0.85
0.23     0.98
0.24     1.12
0.25     1.28
0.26     1.45
0.27     1.63
0.28     1.83
0.29     2.05
0.30     2.28
0.31     2.53
0.32     2.80
0.33     3.09
0.34     3.39
0.35     3.72
0.36     4.07
0.37     4.44
0.38     4.83
0.39     5.25
0.40     5.69
0.41     6.15
0.42     6.64
0.43     7.16
0.44     7.70
0.45     8.27
0.46     8.87
0.47     9.49
0.48     10.15
0.49     10.84
0.50     11.56
0.51     12.31
0.52     13.09
0.53     13.91
0.54     14.76
0.55     15.64
0.56     16.57
0.57     17.52
0.58     18.52
0.59     19.55
0.60     20.62
0.61     21.74
0.62     22.89
0.63     24.08
0.64     25.32
0.65     26.60
0.66     27.92
0.67     29.28
0.68     30.70
0.69     32.15
0.70     33.66
0.71     35.21
0.72     36.81
0.73     38.46
0.74     40.16
0.75     41.90
0.76     43.71
0.77     45.56
0.78     47.47
0.79     49.43
0.80     51.44
0.81     53.51
0.82     55.64
0.83     57.82
0.84     60.06
0.85     62.37
0.86     64.73
0.87     67.15
0.88     69.63
0.89     72.18
0.90     74.78
0.91     77.46
0.92     80.19
0.93     82.99
0.94     85.86
0.95     88.80
0.96     91.80
0.97     94.87
0.98     98.02
0.99     101.23
1.00     104.51
1.01     107.87
1.02     111.30
1.03     114.80
1.04     118.38
Download Rating Curve